Oakman, Georgia
Current Conditions -  °F | °C
As of 10:55 AM on Wednesday 28 Jan 2015 (Local Time) from KDNN Reporting Station
Clear Clear  
Wind Chill: 32°   Ceiling: Unl
Heat Index: 37°   Visibility: 10mi
Dew Point: 23°   Wind: 7mph
Humidity: 56%   Direction: 360°N
Pressure: 30.34"   Gusts: 20mph
Location:  34.57°N, 84.71°W
Report Text: KDNN 281555Z AUTO 36006G17KT 10SM CLR 03/M05 A3034 RMK AO2
Loading
Personal Weather Stations






























Interactive Weather Map New forecast layout! Learn more

10-Day Weather Forecast

Advertisements
Track Severe Weather on mobile